1L3 weather

Searchlight Airport
Searchlight, Nevada, United States

Public forecast

Using degrees Fahrenheit for public forecast. Weather courtesy of forecast.io.

Closest aviation weather report (METAR) to Searchlight Airport

Closest report is Laughlin Bullhead International Airport, 24.3 nm (45.0 km) SE. Retrieved 2020/02/17 16:55 UTC (60 minutes ago):

KIFP 171655Z 31005KT 20SM BKN120 15/02 A2999

Closest aviation forecast (TAF) to Searchlight Airport

Closest forecast is Laughlin Bullhead International Airport, 24.3 nm (45.0 km) SE. Retrieved 2020/02/17 12:46 UTC (5 hours ago):

TAF KIFP 171143Z 1712/1812 VRB05KT P6SM SCT250 FM171300 02011KT P6SM SCT250 FM171800 36016G24KT P6SM SCT250 FM180300 02011KT P6SM FEW250